Flight Track Log - Related Links

Times and Time Zones

All times are in EDT time to prevent confusion due to time zone crossing. See the DAL268 flight status page for this flight to view local times or setup timezone preferences in your user account.

Time Position Orientation Groundspeed Altitude Reporting Facility
EDT Latitude Longitude Course Direction KTS MPH feet Rate Location/Type
Tue 09:39:12 PM 40.6250 -73.7820 349° North 176 203  Level FlightAware ADS-B
Tue 09:39:32 PM 40.6160 -73.7640 123° Southeast 176 203 600 1,714 Climbing FlightAware ADS-B
Tue 09:39:40 PM 40.6110 -73.7600 149° Southeast 180 207 800 1,667 Climbing FlightAware ADS-B
Tue 09:39:50 PM 40.6040 -73.7530 143° Southeast 180 207 1,100 1,000 Climbing FlightAware ADS-B
Tue 09:40:16 PM 40.5850 -73.7360 146° Southeast 209 241 1,400 783 Climbing FlightAware ADS-B
Tue 09:40:36 PM 40.5690 -73.7200 143° Southeast 230 265 1,700 1,050 Climbing FlightAware ADS-B
Tue 09:40:56 PM 40.5520 -73.7010 140° Southeast 246 283 2,100 1,000 Climbing FlightAware ADS-B
Tue 09:41:06 PM 40.5460 -73.6900 126° Southeast 253 291 2,200 1,500 Climbing FlightAware ADS-B
Tue 09:41:16 PM 40.5400 -73.6740 116° Southeast 260 299 2,600 1,846 Climbing FlightAware ADS-B
Tue 09:41:32 PM 40.5360 -73.6490 102° East 272 313 3,000 1,929 Climbing FlightAware ADS-B
Tue 09:41:44 PM 40.5350 -73.6290 94° East 277 319 3,500 2,357 Climbing FlightAware ADS-B
Tue 09:42:00 PM 40.5380 -73.6020 82° East 285 328 4,100 2,333 Climbing FlightAware ADS-B
Tue 09:42:20 PM 40.5450 -73.5670 75° East 290 334 4,900 2,550 Climbing FlightAware ADS-B
Tue 09:42:40 PM 40.5510 -73.5330 77° East 290 334 5,800 2,500 Climbing FlightAware ADS-B
Tue 09:43:08 PM 40.5430 -73.4860 103° East 294 338 6,900 2,625 Climbing FlightAware ADS-B
Tue 09:43:28 PM 40.5320 -73.4500 112° Southeast 295 339 7,900 2,571 Climbing FlightAware ADS-B
Tue 09:43:50 PM 40.5190 -73.4140 115° Southeast 298 343 8,700 2,318 Climbing FlightAware ADS-B
Tue 09:44:12 PM 40.5070 -73.3780 114° Southeast 305 351 9,600 1,759 Climbing FlightAware ADS-B
Tue 09:44:48 PM 40.4870 -73.3160 113° Southeast 332 382 10,400 1,147 Climbing FlightAware ADS-B
Tue 09:45:20 PM 40.4660 -73.2520 113° Southeast 363 418 10,900 1,029 Climbing FlightAware ADS-B
Tue 09:45:58 PM 40.4430 -73.1690 110° East 396 456 11,600 1,459 Climbing FlightAware ADS-B
Tue 09:46:34 PM 40.4510 -73.0810 83° East 413 475 12,700 2,000 Climbing FlightAware ADS-B
Tue 09:46:37 PM 40.4510 -73.0812 272° West 415 478 12,900 2,133 Climbing FlightAware ADS-B (KSNC)
Tue 09:47:19 PM 40.4791 -72.9720 71° East 427 491 14,300 1,973 Climbing FlightAware ADS-B (KSNC)
Tue 09:47:50 PM 40.4952 -72.8975 74° East 434 499 15,300 1,913 Climbing FlightAware ADS-B (KSNC)
Tue 09:48:28 PM 40.5146 -72.8000 75° East 443 510 16,500 1,800 Climbing FlightAware ADS-B (KSNC)
Tue 09:49:00 PM 40.5296 -72.7201 76° East 449 517 17,400 1,810 Climbing FlightAware ADS-B (KSNC)
Tue 09:49:31 PM 40.5466 -72.6300 76° East 455 524 18,400 1,839 Climbing FlightAware ADS-B (KSNC)
Tue 09:50:02 PM 40.5613 -72.5514 76° East 460 529 19,300 1,701 Climbing FlightAware ADS-B (KSNC)
Tue 09:50:38 PM 40.5776 -72.4482 78° East 465 535 20,300 1,600 Climbing FlightAware ADS-B (KSNC)
Tue 09:51:17 PM 40.5920 -72.3410 80° East 470 541 21,300 1,625 Climbing FlightAware ADS-B
Tue 09:51:26 PM 40.5950 -72.3131 82° East 473 544 21,600 1,629 Climbing FlightAware ADS-B (KSNC)
Tue 09:52:27 PM 40.6150 -72.1430 81° East 478 550 23,200 1,438 Climbing FlightAware ADS-B
Tue 09:53:02 PM 40.6260 -72.0490 81° East 482 555 23,900 1,371 Climbing FlightAware ADS-B
Tue 09:53:37 PM 40.6370 -71.9460 82° East 486 559 24,800 1,333 Climbing FlightAware ADS-B
Tue 09:54:14 PM 40.6510 -71.8260 81° East 493 567 25,500 1,135 Climbing FlightAware ADS-B
Tue 09:54:51 PM 40.6640 -71.7160 81° East 499 574 26,200 1,043 Climbing FlightAware ADS-B
Tue 09:55:23 PM 40.6750 -71.6200 81° East 504 580 26,700 493 Climbing FlightAware ADS-B
Tue 09:56:04 PM 40.6880 -71.5160 81° East 504 580 26,800 935 Climbing FlightAware ADS-B
Tue 09:56:40 PM 40.7010 -71.3930 82° East 516 594 27,900 1,565 Climbing FlightAware ADS-B
Tue 09:57:13 PM 40.7130 -71.2790 82° East 516 594 28,600 1,250 Climbing FlightAware ADS-B
Tue 09:57:52 PM 40.7260 -71.1580 82° East 516 594 29,400 1,250 Climbing FlightAware ADS-B
Tue 09:58:25 PM 40.7360 -71.0550 83° East 515 593 30,100 1,200 Climbing FlightAware ADS-B
Tue 09:59:02 PM 40.7480 -70.9410 82° East 514 592 30,800 1,167 Climbing FlightAware ADS-B
Tue 09:59:37 PM 40.7590 -70.8340 82° East 511 588 31,500 1,108 Climbing FlightAware ADS-B
Tue 10:00:07 PM 40.7690 -70.7380 82° East 509 586 32,000 1,015 Climbing FlightAware ADS-B
Tue 10:00:42 PM 40.7800 -70.6310 82° East 507 583 32,600 822 Climbing FlightAware ADS-B
Tue 10:01:20 PM 40.7920 -70.5190 82° East 509 586 33,000 293 Climbing FlightAware ADS-B
Tue 10:02:04 PM 40.8050 -70.3950 82° East 509 586 33,000 -79 Level FlightAware ADS-B
Tue 10:02:36 PM 40.8160 -70.2820 83° East 509 586 32,900 -87 Descending FlightAware ADS-B
Tue 10:03:13 PM 40.8260 -70.1870 82° East 508 585 32,900  Level FlightAware ADS-B
Tue 10:03:49 PM 40.8360 -70.0930 82° East 508 585 32,900  Level FlightAware ADS-B
Tue 10:04:25 PM 40.8460 -69.9980 82° East 508 585 32,900  Level FlightAware ADS-B
Tue 10:05:01 PM 40.8560 -69.9040 82° East 508 585 32,900  Level FlightAware ADS-B
Tue 10:05:37 PM 40.8660 -69.8100 82° East 508 585 32,900  Level FlightAware ADS-B
Tue 10:06:13 PM 40.8760 -69.7160 82° East 508 585 32,900  Level FlightAware ADS-B
Tue 10:06:49 PM 40.8860 -69.6220 82° East 508 585 32,900  Level FlightAware ADS-B
Tue 10:07:25 PM 40.8960 -69.5270 82° East 508 585 32,900  Level FlightAware ADS-B
Tue 10:08:03 PM 40.9070 -69.4280 82° East 508 585 32,900  Level FlightAware ADS-B
Tue 10:08:40 PM 40.9170 -69.3310 82° East 508 585 32,900  Level FlightAware ADS-B
Tue 10:09:16 PM 40.9270 -69.2370 82° East 508 585 32,900  Level FlightAware ADS-B
Tue 10:09:53 PM 40.9370 -69.1400 82° East 508 585 32,900  Level FlightAware ADS-B
Tue 10:10:29 PM 40.9470 -69.0460 82° East 508 585 32,900  Level FlightAware ADS-B
Tue 10:11:05 PM 40.9570 -68.9510 82° East 508 585 32,900  Level FlightAware ADS-B
Tue 10:11:35 PM 40.9660 -68.8730 81° East 508 585 32,900  Level FlightAware ADS-B
Tue 10:12:11 PM 40.9760 -68.7780 82° East 508 585 32,900  Level FlightAware ADS-B
Tue 10:13:27 PM 41.0147 -68.2811 82° East 510 587 32,900  Level New York Center
Tue 10:14:27 PM 41.0294 -68.0936 84° East 510 587 32,900  Level New York Center
Tue 10:15:27 PM 41.0458 -67.9033 83° East 516 594 32,900 15 Level New York Center
Tue 10:21:16 PM 41.1338 -66.7884 83° East 519 597 33,000 16 Climbing FlightAware ADS-B
Tue 10:21:47 PM 41.1494 -66.6906 78° East 519 597 33,000  Level FlightAware ADS-B
Tue 10:21:54 PM 41.1167 -67.0000 78° East 532 612 33,000  Level New York Oceanic (ODAPS)
Tue 10:22:17 PM 41.1634 -66.6001 78° East 519 597 33,000  Level FlightAware ADS-B
Tue 10:22:50 PM 41.1797 -66.4948 78° East 521 600 33,000  Level FlightAware ADS-B
Tue 10:23:34 PM 41.2007 -66.3572 78° East 520 598 33,000  Level FlightAware ADS-B
Tue 10:24:50 PM 41.2322 -66.1489 79° East 522 601 33,000 -44 Level FlightAware ADS-B
Tue 10:25:49 PM 41.2610 -65.9577 79° East 522 601 32,900  Descending FlightAware ADS-B
Tue 10:28:00 PM 41.3495 -65.4616 79° East 532 612 33,000 43 Climbing FlightAware Transoceanic
Tue 10:28:10 PM 41.3291 -65.4939 79° East 523 602 33,000  Level FlightAware ADS-B
Tue 10:28:41 PM 41.3417 -65.4074 79° East 523 602 33,000 -40 Level FlightAware ADS-B
Tue 10:30:41 PM 41.3586 -65.2904 79° East 523 602 32,900  Descending FlightAware ADS-B
Tue 10:31:32 PM 41.4206 -64.8534 79° East 523 602 33,000 65 Climbing FlightAware ADS-B
Tue 10:32:14 PM 41.4355 -64.7449 80° East 521 600 33,000  Level FlightAware ADS-B
Tue 10:33:03 PM 41.4591 -64.5737 80° East 521 600 33,000  Level FlightAware ADS-B
Tue 10:33:34 PM 41.4736 -64.4660 80° East 521 600 33,000  Level FlightAware ADS-B
Tue 10:35:08 PM 41.5130 -64.1733 60° Northeast 521 600 33,000 -17 Level FlightAware ADS-B
Tue 10:36:00 PM 41.6492 -64.0619 60° Northeast  Level Estimated
Tue 10:37:00 PM 41.6471 -63.8628 60° Northeast  Level Estimated
Tue 10:38:00 PM 41.7186 -63.6958 60° Northeast  Level Estimated
Tue 10:39:00 PM 41.7898 -63.5286 60° Northeast  Level Estimated
Tue 10:39:18 PM 41.5623 -63.7954 60° Northeast 523 602 32,900  Level FlightAware ADS-B
Tue 10:41:00 PM 41.6837 -63.5117 60° Northeast  Level Estimated
Tue 10:42:00 PM 41.7547 -63.3444 60° Northeast  Level Estimated
Tue 10:43:00 PM 41.8255 -63.1766 60° Northeast  Level Estimated
Tue 10:44:00 PM 41.8960 -63.0085 61° Northeast  Level Estimated
Tue 10:45:00 PM 41.9663 -62.8401 61° Northeast  Level Estimated
Tue 10:46:00 PM 42.0364 -62.6712 61° Northeast  Level Estimated
Tue 10:47:00 PM 42.1062 -62.5020 61° Northeast  Level Estimated
Tue 10:48:00 PM 42.1758 -62.3325 61° Northeast  Level Estimated
Tue 10:49:00 PM 42.2451 -62.1625 61° Northeast  Level Estimated
Tue 10:50:00 PM 42.3141 -61.9922 61° Northeast  Level Estimated
Tue 10:51:00 PM 42.3829 -61.8215 61° Northeast  Level Estimated
Tue 10:52:00 PM 42.4515 -61.6504 61° Northeast  Level Estimated
Tue 10:53:00 PM 42.5198 -61.4790 62° Northeast  Level Estimated
Tue 10:54:00 PM 42.5878 -61.3071 62° Northeast  Level Estimated
Tue 10:55:00 PM 42.6556 -61.1349 62° Northeast  Level Estimated
Tue 10:56:00 PM 42.7231 -60.9624 62° Northeast  Level Estimated
Tue 10:57:00 PM 42.7904 -60.7894 62° Northeast  Level Estimated
Tue 10:58:00 PM 42.8574 -60.6161 62° Northeast  Level Estimated
Tue 10:58:43 PM 42.0000 -60.0000 79° East 548 631 33,000  Level New York Oceanic (ODAPS)
Tue 10:59:00 PM 42.9241 -60.4424 62° Northeast  Level Estimated
Tue 11:00:00 PM 42.9906 -60.2683 62° Northeast  Level Estimated
Tue 11:01:00 PM 43.0568 -60.0939 63° Northeast  Level Estimated
Tue 11:02:00 PM 43.1227 -59.9190 63° Northeast  Level Estimated
Tue 11:03:00 PM 43.1884 -59.7439 63° Northeast  Level Estimated
Tue 11:04:00 PM 43.2538 -59.5683 63° Northeast  Level Estimated
Tue 11:05:00 PM 42.2485 -58.1893 80° East 548 631 33,000  Level FlightAware Transoceanic
Tue 11:06:00 PM 42.2743 -57.9873 80° East 548 631 33,000  Level FlightAware Transoceanic
Tue 11:07:00 PM 42.2998 -57.7850 80° East 548 631 33,000  Level FlightAware Transoceanic
Tue 11:08:00 PM 42.3249 -57.5827 81° East 548 631 33,000  Level FlightAware Transoceanic
Tue 11:09:00 PM 42.3497 -57.3801 81° East 548 631 33,000  Level FlightAware Transoceanic
Tue 11:10:00 PM 42.3741 -57.1774 81° East 548 631 33,000  Level FlightAware Transoceanic
Tue 11:11:00 PM 42.3982 -56.9746 81° East 548 631 33,000  Level FlightAware Transoceanic
Tue 11:12:00 PM 42.4219 -56.7716 81° East 548 631 33,000  Level FlightAware Transoceanic
Tue 11:13:00 PM 42.4452 -56.5684 81° East 548 631 33,000  Level FlightAware Transoceanic
Tue 11:14:00 PM 42.4682 -56.3651 81° East 548 631 33,000  Level FlightAware Transoceanic
Tue 11:15:00 PM 42.4908 -56.1617 81° East 548 631 33,000  Level FlightAware Transoceanic
Tue 11:16:00 PM 42.5131 -55.9580 82° East 548 631 33,000  Level FlightAware Transoceanic
Tue 11:17:00 PM 42.5350 -55.7543 82° East 548 631 33,000  Level FlightAware Transoceanic
Tue 11:18:00 PM 42.5565 -55.5504 82° East 548 631 33,000  Level FlightAware Transoceanic
Tue 11:19:00 PM 42.5777 -55.3464 82° East 548 631 33,000  Level FlightAware Transoceanic
Tue 11:20:00 PM 42.5985 -55.1422 82° East 548 631 33,000  Level FlightAware Transoceanic
Tue 11:21:00 PM 42.6190 -54.9379 82° East 548 631 33,000  Level FlightAware Transoceanic
Tue 11:22:00 PM 42.6391 -54.7335 82° East 548 631 33,000  Level FlightAware Transoceanic
Tue 11:23:00 PM 42.6588 -54.5289 83° East 548 631 33,000  Level FlightAware Transoceanic
Tue 11:24:00 PM 42.6782 -54.3242 83° East 548 631 33,000  Level FlightAware Transoceanic
Tue 11:25:00 PM 42.6972 -54.1194 83° East 548 631 33,000  Level FlightAware Transoceanic
Tue 11:26:00 PM 42.7158 -53.9145 83° East 548 631 33,000  Level FlightAware Transoceanic
Tue 11:27:00 PM 42.7341 -53.7094 83° East 548 631 33,000  Level FlightAware Transoceanic
Tue 11:28:00 PM 42.7520 -53.5042 83° East 548 631 33,000  Level FlightAware Transoceanic
Tue 11:29:00 PM 42.7696 -53.2989 83° East 548 631 33,000  Level FlightAware Transoceanic
Tue 11:30:00 PM 42.7867 -53.0935 84° East 548 631 33,000  Level FlightAware Transoceanic
Tue 11:31:00 PM 42.8035 -52.8880 84° East 548 631 33,000  Level FlightAware Transoceanic
Tue 11:32:00 PM 42.8200 -52.6823 84° East 548 631 33,000  Level FlightAware Transoceanic
Tue 11:33:00 PM 42.8360 -52.4766 84° East 548 631 33,000  Level FlightAware Transoceanic
Tue 11:34:00 PM 42.8517 -52.2707 84° East 548 631 33,000  Level FlightAware Transoceanic
Tue 11:35:00 PM 42.8671 -52.0648 84° East 548 631 33,000  Level FlightAware Transoceanic
Tue 11:36:00 PM 42.8820 -51.8587 84° East 548 631 33,000  Level FlightAware Transoceanic
Tue 11:37:00 PM 42.8966 -51.6525 85° East 548 631 33,000  Level FlightAware Transoceanic
Tue 11:38:00 PM 42.9108 -51.4463 85° East 548 631 33,000  Level FlightAware Transoceanic
Tue 11:39:00 PM 42.9247 -51.2399 85° East 548 631 33,000  Level FlightAware Transoceanic
Tue 11:40:00 PM 42.9382 -51.0335 85° East 548 631 33,000  Level FlightAware Transoceanic
Tue 11:41:00 PM 42.9513 -50.8270 85° East 548 631 33,000  Level FlightAware Transoceanic
Tue 11:42:00 PM 42.9640 -50.6203 85° East 548 631 33,000  Level FlightAware Transoceanic
Tue 11:43:00 PM 42.9764 -50.4136 85° East 548 631 33,000  Level FlightAware Transoceanic
Tue 11:44:00 PM 42.9884 -50.2069 86° East 548 631 33,000  Level FlightAware Transoceanic
Tue 11:45:00 PM 43.0000 -50.0000 71° East 548 631 33,000  Level FlightAware Transoceanic
Tue 11:46:00 PM 43.0494 -49.8030 71° East 548 631 33,000  Level FlightAware Transoceanic
Tue 11:47:00 PM 43.0984 -49.6056 71° East 548 631 33,000  Level FlightAware Transoceanic
Tue 11:48:00 PM 43.1470 -49.4080 71° East 548 631 33,000  Level FlightAware Transoceanic
Tue 11:49:00 PM 43.1954 -49.2100 72° East 548 631 33,000  Level FlightAware Transoceanic
Tue 11:50:00 PM 43.2433 -49.0117 72° East 548 631 33,000  Level FlightAware Transoceanic
Tue 11:51:00 PM 43.2910 -48.8131 72° East 548 631 33,000  Level FlightAware Transoceanic
Tue 11:52:00 PM 43.3383 -48.6142 72° East 548 631 33,000  Level FlightAware Transoceanic
Tue 11:52:36 PM 43.0000 -50.0000 71° East 550 633 33,000  Level New York Oceanic (ODAPS)
Tue 11:53:00 PM 43.3852 -48.4150 72° East 548 631 33,000  Level FlightAware Transoceanic
Tue 11:54:00 PM 43.4318 -48.2155 72° East 548 631 33,000  Level FlightAware Transoceanic
Tue 11:55:00 PM 43.4781 -48.0156 72° East 548 631 33,000  Level FlightAware Transoceanic
Tue 11:56:00 PM 43.5240 -47.8155 73° East 548 631 33,000  Level FlightAware Transoceanic
Tue 11:57:00 PM 43.5696 -47.6150 73° East 548 631 33,000  Level FlightAware Transoceanic
Tue 11:58:00 PM 43.5696 -47.6150 73° East 550 633 33,000  Level FlightAware Transoceanic
Tue 11:59:00 PM 43.6148 -47.4143 73° East 550 633 33,000  Level FlightAware Transoceanic
Wed 12:00:00 AM 43.6596 -47.2132 73° East 550 633 33,000  Level FlightAware Transoceanic
Wed 12:01:00 AM 43.7041 -47.0119 73° East 550 633 33,000  Level FlightAware Transoceanic
Wed 12:02:00 AM 43.7483 -46.8103 73° East 550 633 33,000  Level FlightAware Transoceanic
Wed 12:03:00 AM 43.7921 -46.6083 73° East 550 633 33,000  Level FlightAware Transoceanic
Wed 12:04:00 AM 43.8355 -46.4061 73° East 550 633 33,000  Level FlightAware Transoceanic
Wed 12:05:00 AM 43.8786 -46.2036 74° East 550 633 33,000  Level FlightAware Transoceanic
Wed 12:06:00 AM 43.9213 -46.0008 74° East 550 633 33,000  Level FlightAware Transoceanic
Wed 12:07:00 AM 43.9637 -45.7976 74° East 550 633 33,000  Level FlightAware Transoceanic
Wed 12:08:00 AM 44.0057 -45.5942 74° East 550 633 33,000  Level FlightAware Transoceanic
Wed 12:09:00 AM 44.0473 -45.3906 74° East 550 633 33,000  Level FlightAware Transoceanic
Wed 12:10:00 AM 44.0886 -45.1866 74° East 550 633 33,000  Level FlightAware Transoceanic
Wed 12:11:00 AM 44.1295 -44.9823 74° East 550 633 33,000  Level FlightAware Transoceanic
Wed 12:12:00 AM 44.1701 -44.7778 75° East 550 633 33,000  Level FlightAware Transoceanic
Wed 12:13:00 AM 44.2103 -44.5730 75° East 550 633 33,000  Level FlightAware Transoceanic
Wed 12:14:00 AM 44.2501 -44.3679 75° East 550 633 33,000  Level FlightAware Transoceanic
Wed 12:15:00 AM 44.2896 -44.1625 75° East 550 633 33,000  Level FlightAware Transoceanic
Wed 12:16:00 AM 44.3287 -43.9569 75° East 550 633 33,000  Level FlightAware Transoceanic
Wed 12:17:00 AM 44.3674 -43.7509 75° East 550 633 33,000  Level FlightAware Transoceanic
Wed 12:18:00 AM 44.4057 -43.5448 75° East 550 633 33,000  Level FlightAware Transoceanic
Wed 12:19:00 AM 44.4437 -43.3383 76° East 550 633 33,000  Level FlightAware Transoceanic
Wed 12:20:00 AM 44.4813 -43.1316 76° East 550 633 33,000  Level FlightAware Transoceanic
Wed 12:21:00 AM 44.5185 -42.9246 76° East 550 633 33,000  Level FlightAware Transoceanic
Wed 12:22:00 AM 44.5554 -42.7173 76° East 550 633 33,000  Level FlightAware Transoceanic
Wed 12:23:00 AM 44.5919 -42.5098 76° East 550 633 33,000  Level FlightAware Transoceanic
Wed 12:24:00 AM 44.6280 -42.3020 76° East 550 633 33,000  Level FlightAware Transoceanic
Wed 12:25:00 AM 44.6637 -42.0940 77° East 550 633 33,000  Level FlightAware Transoceanic
Wed 12:26:00 AM 44.6990 -41.8857 77° East 550 633 33,000  Level FlightAware Transoceanic
Wed 12:27:00 AM 44.7340 -41.6772 77° East 550 633 33,000  Level FlightAware Transoceanic
Wed 12:28:00 AM 44.7686 -41.4684 77° East 550 633 33,000  Level FlightAware Transoceanic
Wed 12:29:00 AM 44.8028 -41.2593 77° East 550 633 33,000  Level FlightAware Transoceanic
Wed 12:30:00 AM 44.8366 -41.0501 77° East 550 633 33,000  Level FlightAware Transoceanic
Wed 12:31:00 AM 44.8701 -40.8405 77° East 550 633 33,000  Level FlightAware Transoceanic
Wed 12:32:00 AM 44.9031 -40.6307 78° East 550 633 33,000  Level FlightAware Transoceanic
Wed 12:33:00 AM 44.9358 -40.4207 78° East 550 633 33,000  Level FlightAware Transoceanic
Wed 12:34:00 AM 44.9681 -40.2105 78° East 550 633 33,000  Level FlightAware Transoceanic
Wed 12:35:00 AM 45.0000 -40.0000 70° East 550 633 33,000  Level FlightAware Transoceanic
Wed 12:36:00 AM 45.0514 -39.7951 71° East 550 633 33,000  Level FlightAware Transoceanic
Wed 12:37:00 AM 45.1025 -39.5898 71° East 550 633 33,000  Level FlightAware Transoceanic
Wed 12:38:00 AM 45.1532 -39.3842 71° East 550 633 33,000  Level FlightAware Transoceanic
Wed 12:39:00 AM 45.2035 -39.1782 71° East 550 633 33,000  Level FlightAware Transoceanic
Wed 12:39:00 AM 45.0000 -40.0000 86° East 519 597 33,000  Level ETMS Enhanced Traffic Management System
Wed 12:40:00 AM 45.2535 -38.9719 71° East 550 633 33,000  Level FlightAware Transoceanic
Wed 12:41:00 AM 45.3030 -38.7651 71° East 550 633 33,000  Level FlightAware Transoceanic
Wed 12:42:00 AM 45.3522 -38.5580 71° East 550 633 33,000  Level FlightAware Transoceanic
Wed 12:43:00 AM 45.4011 -38.3506 72° East 550 633 33,000  Level FlightAware Transoceanic
Wed 12:44:00 AM 45.4495 -38.1428 72° East 550 633 33,000  Level FlightAware Transoceanic
Wed 12:45:00 AM 45.0709 -37.9616 88° East 519 597 33,000  Level FlightAware Transoceanic
Wed 12:46:00 AM 45.0760 -37.7575 88° East 519 597 33,000  Level FlightAware Transoceanic
Wed 12:47:00 AM 45.0808 -37.5534 88° East 519 597 33,000  Level FlightAware Transoceanic
Wed 12:48:00 AM 45.0851 -37.3493 88° East 519 597 33,000  Level FlightAware Transoceanic
Wed 12:49:00 AM 45.0891 -37.1451 88° East 519 597 33,000  Level FlightAware Transoceanic
Wed 12:50:00 AM 45.0928 -36.9409 89° East 519 597 33,000  Level FlightAware Transoceanic
Wed 12:51:00 AM 45.0961 -36.7366 89° East 519 597 33,000  Level FlightAware Transoceanic
Wed 12:52:00 AM 45.0990 -36.5324 89° East 519 597 33,000  Level FlightAware Transoceanic
Wed 12:53:00 AM 45.1015 -36.3281 89° East 519 597 33,000  Level FlightAware Transoceanic
Wed 12:54:00 AM 45.1037 -36.1238 89° East 519 597 33,000  Level FlightAware Transoceanic
Wed 12:55:00 AM 45.1055 -35.9195 89° East 519 597 33,000  Level FlightAware Transoceanic
Wed 12:56:00 AM 45.1070 -35.7152 89° East 519 597 33,000  Level FlightAware Transoceanic
Wed 12:57:00 AM 45.1081 -35.5108 90° East 519 597 33,000  Level FlightAware Transoceanic
Wed 12:58:00 AM 45.1088 -35.3065 90° East 519 597 33,000  Level FlightAware Transoceanic
Wed 12:59:00 AM 45.1092 -35.1022 90° East 519 597 33,000  Level FlightAware Transoceanic
Wed 01:00:00 AM 45.1092 -34.8978 90° East 519 597 33,000  Level FlightAware Transoceanic
Wed 01:01:00 AM 45.1088 -34.6935 90° East 519 597 33,000  Level FlightAware Transoceanic
Wed 01:02:00 AM 45.1081 -34.4892 90° East 519 597 33,000  Level FlightAware Transoceanic
Wed 01:03:00 AM 45.1070 -34.2848 91° East 519 597 33,000  Level FlightAware Transoceanic
Wed 01:04:00 AM 45.1055 -34.0805 91° East 519 597 33,000  Level FlightAware Transoceanic
Wed 01:05:00 AM 45.1037 -33.8762 91° East 519 597 33,000  Level FlightAware Transoceanic
Wed 01:06:00 AM 45.1015 -33.6719 91° East 519 597 33,000  Level FlightAware Transoceanic
Wed 01:07:00 AM 45.0990 -33.4676 91° East 519 597 33,000  Level FlightAware Transoceanic
Wed 01:08:00 AM 45.0961 -33.2634 91° East 519 597 33,000  Level FlightAware Transoceanic
Wed 01:09:00 AM 45.0928 -33.0591 91° East 519 597 33,000  Level FlightAware Transoceanic
Wed 01:10:00 AM 45.0891 -32.8549 92° East 519 597 33,000  Level FlightAware Transoceanic
Wed 01:11:00 AM 45.0851 -32.6507 92° East 519 597 33,000  Level FlightAware Transoceanic
Wed 01:12:00 AM 45.0808 -32.4466 92° East 519 597 33,000  Level FlightAware Transoceanic
Wed 01:13:00 AM 45.0760 -32.2425 92° East 519 597 33,000  Level FlightAware Transoceanic
Wed 01:14:00 AM 45.0709 -32.0384 92° East 519 597 33,000  Level FlightAware Transoceanic
Wed 01:15:00 AM 45.0655 -31.8343 92° East 519 597 33,000  Level FlightAware Transoceanic
Wed 01:16:00 AM 45.0597 -31.6303 92° East 519 597 33,000  Level FlightAware Transoceanic
Wed 01:17:00 AM 45.0535 -31.4263 93° East 519 597 33,000  Level FlightAware Transoceanic
Wed 01:18:00 AM 45.0469 -31.2224 93° East 519 597 33,000  Level FlightAware Transoceanic
Wed 01:19:00 AM 45.0400 -31.0186 93° East 519 597 33,000  Level FlightAware Transoceanic
Wed 01:20:00 AM 45.0327 -30.8147 93° East 519 597 33,000  Level FlightAware Transoceanic
Wed 01:21:00 AM 45.0251 -30.6110 93° East 519 597 33,000 125 Level FlightAware Transoceanic
Wed 01:22:00 AM 45.0480 -30.4106 81° East  Level Estimated
Wed 01:23:00 AM 45.0705 -30.2100 81° East  Level Estimated
Wed 01:24:00 AM 45.0927 -30.0093 81° East  Level Estimated
Wed 01:25:00 AM 45.1146 -29.8084 81° East  Level Estimated
Wed 01:26:00 AM 45.1361 -29.6074 81° East  Level Estimated
Wed 01:27:00 AM 45.1572 -29.4062 81° East  Level Estimated
Wed 01:28:00 AM 45.1780 -29.2049 82° East  Level Estimated
Wed 01:28:00 AM 47.0000 -30.0000 70° East 570 656 34,000  Level ETMS Enhanced Traffic Management System
Wed 01:29:00 AM 45.1985 -29.0035 82° East  Level Estimated
Wed 01:30:00 AM 45.2185 -28.8025 82° East  Level Estimated
Wed 01:31:00 AM 45.2382 -28.6015 82° East  Level Estimated
Wed 01:32:00 AM 45.2575 -28.4003 82° East  Level Estimated
Wed 01:33:00 AM 45.2764 -28.1990 82° East  Level Estimated
Wed 01:34:00 AM 45.2950 -27.9975 82° East  Level Estimated
Wed 01:35:00 AM 47.1177 -28.5413 83° East  Level Estimated
Wed 01:36:00 AM 47.1330 -28.3324 84° East  Level Estimated
Wed 01:37:00 AM 47.1479 -28.1233 84° East  Level Estimated
Wed 01:38:00 AM 47.1625 -27.9142 84° East  Level Estimated
Wed 01:39:00 AM 47.1766 -27.7050 84° East  Level Estimated
Wed 01:40:00 AM 47.1904 -27.4956 84° East  Level Estimated
Wed 01:41:00 AM 47.2038 -27.2861 85° East  Level Estimated
Wed 01:42:00 AM 47.2168 -27.0765 85° East  Level Estimated
Wed 01:43:00 AM 47.2295 -26.8669 85° East  Level Estimated
Wed 01:44:00 AM 47.2417 -26.6571 85° East  Level Estimated
Wed 01:45:00 AM 47.2536 -26.4472 85° East  Level Estimated
Wed 01:46:00 AM 47.2651 -26.2373 85° East  Level Estimated
Wed 01:47:00 AM 47.2762 -26.0272 85° East  Level Estimated
Wed 01:48:00 AM 47.2869 -25.8171 86° East  Level Estimated
Wed 01:49:00 AM 47.2972 -25.6069 86° East  Level Estimated
Wed 01:50:00 AM 47.3072 -25.3966 86° East  Level Estimated
Wed 01:51:00 AM 47.3167 -25.1862 86° East  Level Estimated
Wed 01:52:00 AM 47.3259 -24.9757 86° East  Level Estimated
Wed 01:53:00 AM 47.3347 -24.7652 86° East  Level Estimated
Wed 01:54:00 AM 47.3431 -24.5546 87° East  Level Estimated
Wed 01:55:00 AM 47.3511 -24.3440 87° East  Level Estimated
Wed 01:56:00 AM 47.3588 -24.1333 87° East  Level Estimated
Wed 01:57:00 AM 47.3660 -23.9225 87° East  Level Estimated
Wed 01:58:00 AM 47.3729 -23.7117 87° East  Level Estimated
Wed 01:59:00 AM 47.3794 -23.5008 87° East  Level Estimated
Wed 02:00:00 AM 47.3854 -23.2898 87° East  Level Estimated
Wed 02:01:00 AM 47.3912 -23.0788 88° East  Level Estimated
Wed 02:02:00 AM 47.3965 -22.8678 88° East  Level Estimated
Wed 02:03:00 AM 47.4014 -22.6567 88° East  Level Estimated
Wed 02:04:00 AM 47.4059 -22.4456 88° East  Level Estimated
Wed 02:05:00 AM 47.4101 -22.2345 88° East  Level Estimated
Wed 02:06:00 AM 47.4138 -22.0233 88° East  Level Estimated
Wed 02:07:00 AM 47.4172 -21.8121 89° East  Level Estimated
Wed 02:08:00 AM 47.4202 -21.6009 89° East  Level Estimated
Wed 02:09:00 AM 47.4228 -21.3896 89° East  Level Estimated
Wed 02:10:00 AM 47.4250 -21.1784 89° East  Level Estimated
Wed 02:11:00 AM 47.4268 -20.9671 89° East  Level Estimated
Wed 02:12:00 AM 47.4283 -20.7558 89° East  Level Estimated
Wed 02:13:00 AM 47.4293 -20.5445 90° East  Level Estimated
Wed 02:14:00 AM 47.4300 -20.3331 90° East  Level Estimated
Wed 02:15:00 AM 47.4303 -20.1218 90° East  Level Estimated
Wed 02:16:00 AM 47.4301 -19.9105 90° East  Level Estimated
Wed 02:17:00 AM 47.4296 -19.6992 90° East  Level Estimated
Wed 02:18:00 AM 47.4288 -19.4879 90° East  Level Estimated
Wed 02:19:00 AM 47.4275 -19.2766 90° East  Level Estimated
Wed 02:20:00 AM 47.4258 -19.0653 91° East  Level Estimated
Wed 02:21:00 AM 47.4238 -18.8540 91° East  Level Estimated
Wed 02:22:00 AM 47.4213 -18.6427 91° East  Level Estimated
Wed 02:23:00 AM 47.4185 -18.4315 91° East  Level Estimated
Wed 02:24:00 AM 47.4152 -18.2203 91° East  Level Estimated
Wed 02:25:00 AM 47.4116 -18.0091 91° East  Level Estimated
Wed 02:26:00 AM 47.4076 -17.7979 92° East  Level Estimated
Wed 02:27:00 AM 47.4033 -17.5868 92° East  Level Estimated
Wed 02:28:00 AM 47.3985 -17.3757 92° East  Level Estimated
Wed 02:29:00 AM 47.3933 -17.1647 92° East  Level Estimated
Wed 02:30:00 AM 47.3878 -16.9537 92° East  Level Estimated
Wed 02:31:00 AM 47.3818 -16.7427 92° East  Level Estimated
Wed 02:32:00 AM 47.3755 -16.5318 92° East  Level Estimated
Wed 02:33:00 AM 47.3688 -16.3209 93° East  Level Estimated
Wed 02:34:00 AM 47.3617 -16.1101 93° East  Level Estimated
Wed 02:35:00 AM 47.3542 -15.8994 93° East  Level Estimated
Wed 02:36:00 AM 47.3464 -15.6887 93° East  Level Estimated
Wed 02:37:00 AM 47.3381 -15.4781 93° East  Level Estimated
Wed 02:38:00 AM 47.3295 -15.2676 93° East  Level Estimated
Wed 02:39:00 AM 47.3205 -15.0571 94° East  Level Estimated
Wed 02:40:00 AM 47.3111 -14.8467 94° East  Level Estimated
Wed 02:41:00 AM 47.3013 -14.6363 94° East  Level Estimated
Wed 02:42:00 AM 47.2911 -14.4261 94° East  Level Estimated
Wed 02:43:00 AM 47.2805 -14.2159 94° East  Level Estimated
Wed 02:44:00 AM 47.2696 -14.0058 94° East  Level Estimated
Wed 02:45:00 AM 47.2582 -13.7958 94° East  Level Estimated
Wed 02:46:00 AM 47.2465 -13.5859 95° East  Level Estimated
Wed 02:47:00 AM 47.2344 -13.3761 95° East  Level Estimated
Wed 02:48:00 AM 47.2220 -13.1668 95° East  Level Estimated
Wed 02:49:00 AM 47.2091 -12.9575 95° East  Level Estimated
Wed 02:50:00 AM 47.1959 -12.7484 95° East  Level Estimated
Wed 02:50:15 AM 48.7900 -9.7490 95° East 572 658 34,900  Level FlightAware ADS-B
Wed 02:50:48 AM 48.7820 -9.6190 95° East 572 658 34,900  Level FlightAware ADS-B
Wed 02:51:25 AM 48.7720 -9.4660 96° East 572 658 34,900  Level FlightAware ADS-B
Wed 02:52:02 AM 48.7630 -9.3240 95° East 573 659 34,900 85 Level FlightAware ADS-B
Wed 02:52:36 AM 48.7540 -9.1810 95° East 573 659 35,000  Climbing FlightAware ADS-B
Wed 02:53:17 AM 48.7460 -9.0740 96° East 574 661 34,900 -81 Descending FlightAware ADS-B
Wed 02:53:50 AM 48.7472 -8.8390 96° East 498 573 34,900  Level FlightAware UK
Wed 02:53:53 AM 48.7330 -8.8760 96° East 574 661 34,900  Level FlightAware ADS-B
Wed 02:54:23 AM 48.7250 -8.7690 96° East 573 659 34,900  Level FlightAware ADS-B
Wed 02:55:01 AM 48.7130 -8.6020 96° East 572 658 34,900  Level FlightAware ADS-B
Wed 02:55:38 AM 48.7020 -8.4560 96° East 572 658 34,900  Level FlightAware ADS-B
Wed 02:56:07 AM 48.6940 -8.3450 96° East 572 658 34,900  Level FlightAware ADS-B
Wed 02:56:45 AM 48.6830 -8.1950 96° East 571 657 34,900  Level FlightAware ADS-B
Wed 02:57:20 AM 48.6798 -7.9993 96° East 494 568 34,900  Level FlightAware UK
Wed 02:57:22 AM 48.6720 -8.0550 96° East 572 658 34,900  Level FlightAware ADS-B
Wed 02:57:57 AM 48.6600 -7.9070 97° East 568 654 34,900  Level FlightAware ADS-B
Wed 02:58:34 AM 48.6410 -7.7630 101° East 560 644 34,900  Level FlightAware ADS-B
Wed 02:59:10 AM 48.6170 -7.6310 105° East 551 634 34,900 90 Level FlightAware ADS-B
Wed 02:59:41 AM 48.5930 -7.5190 108° East 551 634 35,000  Climbing FlightAware ADS-B
Wed 03:00:18 AM 48.5650 -7.3840 107° East 553 636 34,900 -87 Descending FlightAware ADS-B
Wed 03:00:50 AM 48.5431 -7.2059 107° East 492 566 34,900  Level FlightAware UK
Wed 03:00:50 AM 48.5400 -7.2650 107° East 553 636 34,900  Level FlightAware ADS-B
Wed 03:01:20 AM 48.5199 -7.0961 107° East 490 564 34,900  Level FlightAware UK
Wed 03:01:27 AM 48.5110 -7.1270 107° East 555 639 34,900 136 Level FlightAware ADS-B
Wed 03:02:04 AM 48.4820 -6.9930 108° East 557 641 35,000  Climbing FlightAware ADS-B
Wed 03:02:40 AM 48.4590 -6.8590 104° East 562 647 34,900  Descending FlightAware ADS-B
Wed 03:03:12 AM 48.4350 -6.7400 107° East 558 642 35,000  Climbing FlightAware ADS-B
Wed 03:03:46 AM 48.4070 -6.6120 108° East 557 641 34,900 -87 Descending FlightAware ADS-B
Wed 03:04:21 AM 48.3815 -6.4307 108° East 500 575 34,900  Level FlightAware UK
Wed 03:04:22 AM 48.3780 -6.4840 108° East 555 639 34,900 154 Level FlightAware ADS-B
Wed 03:05:00 AM 48.3470 -6.3440 108° East 554 638 35,000 88 Climbing FlightAware ADS-B
Wed 03:05:30 AM 48.3220 -6.2340 109° East 552 635 35,000 -88 Level FlightAware ADS-B
Wed 03:06:08 AM 48.2900 -6.0910 109° East 550 633 34,900  Descending FlightAware ADS-B
Wed 03:06:42 AM 48.2620 -5.9670 109° East 549 632 35,000 88 Climbing FlightAware ADS-B
Wed 03:07:16 AM 48.2340 -5.8470 109° East 549 632 35,000 -87 Level FlightAware ADS-B
Wed 03:07:51 AM 48.2064 -5.6707 109° East 494 568 34,900  Descending FlightAware UK
Wed 03:07:51 AM 48.2060 -5.7280 109° East 550 633 35,000  Climbing FlightAware ADS-B
Wed 03:08:21 AM 48.1808 -5.5637 109° East 496 571 34,900 -162 Descending FlightAware UK
Wed 03:08:28 AM 48.1740 -5.5930 109° East 553 636 34,900  Level FlightAware ADS-B
Wed 03:09:01 AM 48.1500 -5.4640 106° East 556 640 34,900  Level FlightAware ADS-B
Wed 03:09:38 AM 48.1250 -5.3290 105° East 554 638 34,900  Level FlightAware ADS-B
Wed 03:10:14 AM 48.1010 -5.2010 106° East 556 640 34,900  Level FlightAware ADS-B
Wed 03:10:49 AM 48.0760 -5.0730 106° East 556 640 34,900  Level FlightAware ADS-B
Wed 03:11:23 AM 48.0560 -4.9670 106° East 556 640 34,900  Level FlightAware ADS-B
Wed 03:11:56 AM 48.0280 -4.8190 106° East 557 641 34,900  Level FlightAware ADS-B
Wed 03:12:32 AM 48.0010 -4.6860 107° East 558 642 34,900 82 Level FlightAware ADS-B
Wed 03:13:09 AM 47.9730 -4.5490 107° East 558 642 35,000  Climbing FlightAware ADS-B
Wed 03:13:41 AM 47.9490 -4.4300 107° East 559 643 34,900  Descending FlightAware ADS-B
Wed 03:14:18 AM 47.9150 -4.2990 111° Southeast 554 638 35,000  Climbing FlightAware ADS-B
Wed 03:14:53 AM 47.8820 -4.1820 113° Southeast 554 638 34,900  Descending FlightAware ADS-B
Wed 03:15:05 AM 47.8678 -4.1309 112° Southeast 556 640 35,000  Climbing FlightAware ADS-B (EGJJ / JER)
Wed 03:16:02 AM 47.8120 -3.9320 113° Southeast 558 642 34,900 -65 Descending FlightAware ADS-B
Wed 03:16:37 AM 47.7800 -3.8120 112° Southeast 560 644 34,900  Level FlightAware ADS-B
Wed 03:17:15 AM 47.7410 -3.6700 112° Southeast 560 644 34,900  Level FlightAware ADS-B
Wed 03:17:46 AM 47.7110 -3.5630 113° Southeast 559 643 34,900  Level FlightAware ADS-B
Wed 03:18:23 AM 47.6770 -3.4380 112° Southeast 558 642 34,900  Level FlightAware ADS-B
Wed 03:18:58 AM 47.6390 -3.3080 113° Southeast 553 636 34,900  Level FlightAware ADS-B
Wed 03:19:26 AM 47.6145 -3.2355 117° Southeast 549 632 34,900  Level FlightAware ADS-B (LFBU / ANG)
Wed 03:20:07 AM 47.5550 -3.0810 120° Southeast 545 627 34,900  Level FlightAware ADS-B
Wed 03:20:44 AM 47.5070 -2.9640 121° Southeast 545 627 34,900  Level FlightAware ADS-B
Wed 03:21:19 AM 47.4600 -2.8540 122° Southeast 544 626 34,900  Level FlightAware ADS-B
Wed 03:21:53 AM 47.4130 -2.7440 122° Southeast 545 627 34,900  Level FlightAware ADS-B
Wed 03:22:28 AM 47.3670 -2.6380 123° Southeast 545 627 34,900  Level FlightAware ADS-B
Wed 03:23:02 AM 47.3200 -2.5300 123° Southeast 544 626 34,900  Level FlightAware ADS-B
Wed 03:23:30 AM 47.2859 -2.4526 123° Southeast 546 628 34,900  Level FlightAware ADS-B (LFBU / ANG)
Wed 03:24:14 AM 47.2210 -2.3060 123° Southeast 547 629 34,900  Level FlightAware ADS-B
Wed 03:24:47 AM 47.1760 -2.2030 123° Southeast 548 631 34,900  Level FlightAware ADS-B
Wed 03:25:22 AM 47.1300 -2.1000 123° Southeast 548 631 34,900  Level FlightAware ADS-B
Wed 03:25:55 AM 47.0800 -1.9890 123° Southeast 548 631 34,900  Level FlightAware ADS-B
Wed 03:26:41 AM 47.0190 -1.8500 123° Southeast 548 631 34,900  Level FlightAware ADS-B
Wed 03:27:17 AM 46.9680 -1.7370 123° Southeast 548 631 34,900  Level FlightAware ADS-B
Wed 03:27:49 AM 46.9230 -1.6360 123° Southeast 547 629 34,900  Level FlightAware ADS-B
Wed 03:28:25 AM 46.8750 -1.5260 123° Southeast 548 631 34,900  Level FlightAware ADS-B
Wed 03:29:01 AM 46.8260 -1.4170 123° Southeast 547 629 34,900  Level FlightAware ADS-B
Wed 03:29:32 AM 46.7830 -1.3210 123° Southeast 546 628 34,900 86 Level FlightAware ADS-B
Wed 03:30:11 AM 46.7350 -1.1890 118° Southeast 552 635 35,000  Climbing FlightAware ADS-B
Wed 03:30:41 AM 46.7050 -1.0870 113° Southeast 551 634 34,900 -91 Descending FlightAware ADS-B
Wed 03:31:17 AM 46.6680 -0.9690 115° Southeast 553 636 34,900  Level FlightAware ADS-B
Wed 03:31:54 AM 46.6300 -0.8480 115° Southeast 554 638 34,900  Level FlightAware ADS-B
Wed 03:32:32 AM 46.5920 -0.7130 112° Southeast 557 641 34,900  Level FlightAware ADS-B
Wed 03:33:01 AM 46.5640 -0.6060 111° Southeast 557 641 34,900  Level FlightAware ADS-B
Wed 03:33:39 AM 46.5280 -0.4750 112° Southeast 558 642 34,900  Level FlightAware ADS-B
Wed 03:34:15 AM 46.4940 -0.3500 112° Southeast 558 642 34,900  Level FlightAware ADS-B
Wed 03:34:52 AM 46.4580 -0.2230 112° Southeast 559 643 34,900  Level FlightAware ADS-B
Wed 03:35:23 AM 46.4280 -0.1150 112° Southeast 558 642 34,900  Level FlightAware ADS-B
Wed 03:35:59 AM 46.3920 0.0090 113° Southeast 557 641 34,900  Level FlightAware ADS-B
Wed 03:36:36 AM 46.3560 0.1360 112° Southeast 557 641 34,900  Level FlightAware ADS-B
Wed 03:37:09 AM 46.3240 0.2490 112° Southeast 557 641 34,900  Level FlightAware ADS-B
Wed 03:37:43 AM 46.2890 0.3680 113° Southeast 558 642 34,900  Level FlightAware ADS-B
Wed 03:38:20 AM 46.2520 0.4950 113° Southeast 559 643 34,900  Level FlightAware ADS-B
Wed 03:38:56 AM 46.2183 0.6115 113° Southeast 561 646 34,900  Level FlightAware ADS-B (LFBU / ANG)
Wed 03:39:30 AM 46.1820 0.7340 113° Southeast 562 647 34,900  Level FlightAware ADS-B
Wed 03:40:07 AM 46.1450 0.8640 112° Southeast 563 648 34,900  Level FlightAware ADS-B
Wed 03:40:40 AM 46.1110 0.9760 114° Southeast 565 650 34,900  Level FlightAware ADS-B
Wed 03:41:15 AM 46.0750 1.0980 113° Southeast 565 650 34,900  Level FlightAware ADS-B
Wed 03:41:49 AM 46.0400 1.2160 113° Southeast 566 651 34,900  Level FlightAware ADS-B
Wed 03:42:01 AM 46.0280 1.2560 113° Southeast 567 652 34,900  Level FlightAware ADS-B (LFBU / ANG)
Wed 03:43:02 AM 45.9658 1.4655 113° Southeast 568 654 34,900  Level FlightAware ADS-B (LFBU / ANG)
Wed 03:43:41 AM 45.9240 1.5990 114° Southeast 567 652 34,900  Level FlightAware ADS-B
Wed 03:44:23 AM 45.8760 1.7360 117° Southeast 567 652 34,900  Level FlightAware ADS-B
Wed 03:44:57 AM 45.8320 1.8610 117° Southeast 568 654 34,900  Level FlightAware ADS-B
Wed 03:45:34 AM 45.7890 1.9820 117° Southeast 569 655 34,900  Level FlightAware ADS-B
Wed 03:46:09 AM 45.7480 2.0960 117° Southeast 568 654 34,900  Level FlightAware ADS-B
Wed 03:46:42 AM 45.7080 2.2080 117° Southeast 568 654 34,900  Level FlightAware ADS-B
Wed 03:47:20 AM 45.6630 2.3320 117° Southeast 568 654 34,900  Level FlightAware ADS-B
Wed 03:48:01 AM 45.6130 2.4670 118° Southeast 567 652 34,900  Level FlightAware ADS-B
Wed 03:48:36 AM 45.5690 2.5860 118° Southeast 567 652 34,900  Level FlightAware ADS-B
Wed 03:48:46 AM 45.5686 2.5881 104° East 568 654 34,900  Level FlightAware ADS-B (LFBU / ANG)
Wed 03:49:45 AM 45.4940 2.8210 114° Southeast 568 654 34,900  Level FlightAware ADS-B
Wed 03:50:13 AM 45.4700 2.9187 109° East 568 654 34,900  Level FlightAware ADS-B (LFBU / ANG)
Wed 03:50:55 AM 45.4320 3.0660 110° East 567 652 34,900  Level FlightAware ADS-B
Wed 03:51:33 AM 45.3980 3.1990 110° East 567 652 34,900  Level FlightAware ADS-B
Wed 03:52:06 AM 45.3670 3.3140 111° Southeast 567 652 34,900  Level FlightAware ADS-B
Wed 03:52:42 AM 45.3350 3.4320 111° Southeast 568 654 34,900  Level FlightAware ADS-B
Wed 03:53:15 AM 45.3030 3.5530 111° Southeast 568 654 34,900  Level FlightAware ADS-B
Wed 03:53:51 AM 45.2680 3.6810 111° Southeast 569 655 34,900  Level FlightAware ADS-B
Wed 03:54:26 AM 45.2350 3.8030 111° Southeast 569 655 34,900  Level FlightAware ADS-B
Wed 03:55:03 AM 45.2090 3.9360 105° East 564 649 34,900  Level FlightAware ADS-B
Wed 03:55:35 AM 45.1910 4.0500 103° East 565 650 34,900  Level FlightAware ADS-B
Wed 03:56:11 AM 45.1690 4.1820 103° East 564 649 34,900  Level FlightAware ADS-B
Wed 03:56:47 AM 45.1490 4.3110 102° East 564 649 34,900  Level FlightAware ADS-B
Wed 03:57:20 AM 45.1290 4.4280 104° East 565 650 34,900  Level FlightAware ADS-B
Wed 03:57:55 AM 45.1070 4.5550 104° East 568 654 34,900  Level FlightAware ADS-B
Wed 03:58:17 AM 45.0830 4.6300 114° Southeast 571 657 34,900  Level FlightAware ADS-B
Wed 03:58:53 AM 45.0250 4.7390 127° Southeast 571 657 34,900  Level FlightAware ADS-B
Wed 03:59:29 AM 44.9660 4.8430 129° Southeast 571 657 34,900  Level FlightAware ADS-B
Wed 04:00:01 AM 44.9130 4.9380 128° Southeast 571 657 34,900  Level FlightAware ADS-B
Wed 04:00:37 AM 44.8560 5.0420 128° Southeast 572 658 34,900  Level FlightAware ADS-B
Wed 04:01:13 AM 44.7990 5.1470 127° Southeast 572 658 34,900  Level FlightAware ADS-B
Wed 04:01:45 AM 44.7480 5.2400 128° Southeast 572 658 34,900  Level FlightAware ADS-B
Wed 04:02:21 AM 44.6890 5.3440 129° Southeast 570 656 34,900  Level FlightAware ADS-B
Wed 04:02:57 AM 44.6250 5.4480 131° Southeast 570 656 34,900  Level FlightAware ADS-B
Wed 04:03:31 AM 44.5660 5.5440 131° Southeast 569 655 34,900  Level FlightAware ADS-B
Wed 04:04:07 AM 44.5050 5.6450 130° Southeast 569 655 34,900  Level FlightAware ADS-B
Wed 04:04:41 AM 44.4480 5.7390 130° Southeast 567 652 34,900  Level FlightAware ADS-B
Wed 04:05:17 AM 44.3860 5.8420 130° Southeast 567 652 34,900  Level FlightAware ADS-B
Wed 04:05:52 AM 44.3300 5.9360 130° Southeast 567 652 34,900  Level FlightAware ADS-B
Wed 04:06:29 AM 44.2680 6.0390 130° Southeast 565 650 34,900 87 Level FlightAware ADS-B
Wed 04:07:01 AM 44.2120 6.1310 130° Southeast 565 650 35,000  Climbing FlightAware ADS-B
Wed 04:07:37 AM 44.1500 6.2330 130° Southeast 568 654 34,900 -86 Descending FlightAware ADS-B
Wed 04:08:11 AM 44.0930 6.3260 130° Southeast 566 651 34,900 88 Level FlightAware ADS-B
Wed 04:08:45 AM 44.0380 6.4160 130° Southeast 564 649 35,000  Climbing FlightAware ADS-B
Wed 04:09:21 AM 43.9740 6.5170 131° Southeast 566 651 34,900 -83 Descending FlightAware ADS-B
Wed 04:09:57 AM 43.9120 6.6170 131° Southeast 566 651 34,900  Level FlightAware ADS-B
Wed 04:10:31 AM 43.8560 6.7160 128° Southeast 565 650 34,900  Level FlightAware ADS-B
Wed 04:11:27 AM 43.7800 6.8710 124° Southeast 563 648 34,900  Level FlightAware ADS-B
Wed 04:12:01 AM 43.7270 6.9860 122° Southeast 568 654 34,900  Level FlightAware ADS-B
Wed 04:12:38 AM 43.6770 7.0960 122° Southeast 568 654 34,900  Level FlightAware ADS-B
Wed 04:13:15 AM 43.6250 7.2100 122° Southeast 570 656 34,900  Level FlightAware ADS-B
Wed 04:13:47 AM 43.5790 7.3120 122° Southeast 569 655 34,900  Level FlightAware ADS-B
Wed 04:14:30 AM 43.5210 7.4400 122° Southeast 573 659 34,900  Level FlightAware ADS-B
Wed 04:15:07 AM 43.4670 7.5570 122° Southeast 573 659 34,900  Level FlightAware ADS-B
Wed 04:15:37 AM 43.4240 7.6520 122° Southeast 573 659 34,900  Level FlightAware ADS-B
Wed 04:16:15 AM 43.3700 7.7700 122° Southeast 574 661 34,900  Level FlightAware ADS-B
Wed 04:16:50 AM 43.3200 7.8790 122° Southeast 576 663 34,900  Level FlightAware ADS-B
Wed 04:17:27 AM 43.2680 7.9910 122° Southeast 575 662 34,900  Level FlightAware ADS-B
Wed 04:18:02 AM 43.2180 8.0990 122° Southeast 575 662 34,900  Level FlightAware ADS-B
Wed 04:18:34 AM 43.1720 8.1970 123° Southeast 576 663 34,900  Level FlightAware ADS-B
Wed 04:19:09 AM 43.1210 8.3050 123° Southeast 577 664 34,900  Level FlightAware ADS-B
Wed 04:19:46 AM 43.0710 8.4130 122° Southeast 578 665 34,900  Level FlightAware ADS-B
Wed 04:20:23 AM 43.0130 8.5340 123° Southeast 578 665 34,900  Level FlightAware ADS-B
Wed 04:21:02 AM 42.9590 8.6480 123° Southeast 578 665 34,900  Level FlightAware ADS-B
Wed 04:21:32 AM 42.9160 8.7380 123° Southeast 576 663 34,900  Level FlightAware ADS-B
Wed 04:22:14 AM 42.8550 8.8640 123° Southeast 573 659 34,900  Level FlightAware ADS-B
Wed 04:22:49 AM 42.8010 8.9760 123° Southeast 573 659 34,900  Level FlightAware ADS-B
Wed 04:23:21 AM 42.7550 9.0730 123° Southeast 571 657 34,900  Level FlightAware ADS-B
Wed 04:23:59 AM 42.7020 9.1820 123° Southeast 568 654 34,900 81 Level FlightAware ADS-B
Wed 04:24:35 AM 42.6600 9.2980 116° Southeast 563 648 35,000  Climbing FlightAware ADS-B
Wed 04:25:08 AM 42.6250 9.4110 113° Southeast 566 651 34,900 -91 Descending FlightAware ADS-B
Wed 04:25:41 AM 42.5950 9.5150 111° Southeast 560 644 34,900 83 Level FlightAware ADS-B
Wed 04:26:20 AM 42.5600 9.6440 110° East 561 646 35,000  Climbing FlightAware ADS-B
Wed 04:26:51 AM 42.5310 9.7460 111° Southeast 562 647 34,900 -90 Descending FlightAware ADS-B
Wed 04:27:27 AM 42.4970 9.8650 111° Southeast 562 647 34,900  Level FlightAware ADS-B
Wed 04:28:03 AM 42.4630 9.9790 112° Southeast 562 647 34,900  Level FlightAware ADS-B
Wed 04:28:39 AM 42.4280 10.0980 112° Southeast 562 647 34,900  Level FlightAware ADS-B
Wed 04:29:13 AM 42.3950 10.2120 111° Southeast 563 648 34,900  Level FlightAware ADS-B
Wed 04:29:49 AM 42.3600 10.3290 112° Southeast 565 650 34,900  Level FlightAware ADS-B
Wed 04:30:25 AM 42.3260 10.4460 111° Southeast 567 652 34,900  Level FlightAware ADS-B
Wed 04:30:56 AM 42.2950 10.5480 112° Southeast 567 652 34,900  Level FlightAware ADS-B
Wed 04:31:31 AM 42.2610 10.6630 112° Southeast 569 655 34,900  Level FlightAware ADS-B
Wed 04:32:01 AM 42.2280 10.7610 114° Southeast 578 665 34,900  Level FlightAware ADS-B
Wed 04:32:37 AM 42.1690 10.8640 128° Southeast 583 671 34,900  Level FlightAware ADS-B
Wed 04:33:09 AM 42.1130 10.9580 129° Southeast 584 672 34,900  Level FlightAware ADS-B
Wed 04:33:43 AM 42.0570 11.0550 128° Southeast 584 672 34,900  Level FlightAware ADS-B
Wed 04:34:21 AM 41.9970 11.1630 127° Southeast 584 672 34,900  Level FlightAware ADS-B
Wed 04:34:57 AM 41.9390 11.2670 127° Southeast 586 674 34,900  Level FlightAware ADS-B
Wed 04:35:33 AM 41.8770 11.3690 129° Southeast 586 674 34,900  Level FlightAware ADS-B
Wed 04:36:05 AM 41.8220 11.4590 129° Southeast 585 673 34,900  Level FlightAware ADS-B
Wed 04:36:41 AM 41.7590 11.5600 130° Southeast 584 672 34,900  Level FlightAware ADS-B
Wed 04:37:13 AM 41.7040 11.6510 129° Southeast 583 671 34,900  Level FlightAware ADS-B
Wed 04:37:53 AM 41.6370 11.7620 129° Southeast 585 673 34,900  Level FlightAware ADS-B
Wed 04:38:25 AM 41.5820 11.8520 129° Southeast 584 672 34,900  Level FlightAware ADS-B
Wed 04:39:01 AM 41.5200 11.9530 129° Southeast 583 671 34,900  Level FlightAware ADS-B
Wed 04:39:37 AM 41.4590 12.0540 129° Southeast 585 673 34,900  Level FlightAware ADS-B
Wed 04:40:09 AM 41.4030 12.1440 130° Southeast 585 673 34,900  Level FlightAware ADS-B
Wed 04:40:45 AM 41.3420 12.2440 129° Southeast 586 674 34,900  Level FlightAware ADS-B
Wed 04:41:21 AM 41.2800 12.3440 130° Southeast 587 676 34,900  Level FlightAware ADS-B
Wed 04:41:58 AM 41.2180 12.4450 129° Southeast 588 677 34,900  Level FlightAware ADS-B
Wed 04:42:29 AM 41.1640 12.5310 130° Southeast 588 677 34,900  Level FlightAware ADS-B
Wed 04:43:07 AM 41.0960 12.6390 130° Southeast 588 677 34,900  Level FlightAware ADS-B
Wed 04:43:41 AM 41.0400 12.7290 130° Southeast 587 676 34,900  Level FlightAware ADS-B
Wed 04:44:15 AM 40.9790 12.8260 130° Southeast 586 674 34,900 86 Level FlightAware ADS-B
Wed 04:44:51 AM 40.9230 12.9290 126° Southeast 578 665 35,000  Climbing FlightAware ADS-B
Wed 04:45:27 AM 40.8850 13.0420 114° Southeast 571 657 34,900 -88 Descending FlightAware ADS-B
Wed 04:45:59 AM 40.8430 13.1410 119° Southeast 579 666 34,900  Level FlightAware ADS-B
Wed 04:46:35 AM 40.7930 13.2460 122° Southeast 578 665 34,900  Level FlightAware ADS-B
Wed 04:47:07 AM 40.7460 13.3490 121° Southeast 576 663 34,900 171 Level FlightAware ADS-B
Wed 04:47:45 AM 40.6950 13.4640 120° Southeast 574 661 35,100 880 Climbing FlightAware ADS-B
Wed 04:48:22 AM 40.6480 13.5700 120° Southeast 572 658 36,000 1,333 Climbing FlightAware ADS-B
Wed 04:48:57 AM 40.6010 13.6790 120° Southeast 572 658 36,700 806 Climbing FlightAware ADS-B
Wed 04:49:29 AM 40.5580 13.7760 120° Southeast 573 659 36,900 182 Climbing FlightAware ADS-B
Wed 04:50:03 AM 40.5120 13.8800 120° Southeast 574 661 36,900  Level FlightAware ADS-B
Wed 04:50:43 AM 40.4590 13.9980 121° Southeast 572 658 36,900  Level FlightAware ADS-B
Wed 04:51:15 AM 40.4150 14.0930 121° Southeast 571 657 36,900  Level FlightAware ADS-B
Wed 04:51:51 AM 40.3670 14.1990 121° Southeast 571 657 36,900  Level FlightAware ADS-B
Wed 04:52:27 AM 40.3170 14.3070 121° Southeast 570 656 36,900  Level FlightAware ADS-B
Wed 04:52:59 AM 40.2740 14.4020 121° Southeast 568 654 36,900  Level FlightAware ADS-B
Wed 04:53:35 AM 40.2240 14.5080 122° Southeast 570 656 36,900  Level FlightAware ADS-B
Wed 04:54:12 AM 40.1750 14.6140 121° Southeast 569 655 36,900  Level FlightAware ADS-B
Wed 04:54:47 AM 40.1270 14.7190 121° Southeast 569 655 36,900  Level FlightAware ADS-B
Wed 04:55:19 AM 40.0820 14.8140 122° Southeast 571 657 36,900  Level FlightAware ADS-B
Wed 04:55:55 AM 40.0330 14.9200 121° Southeast 570 656 36,900  Level FlightAware ADS-B
Wed 04:56:31 AM 39.9840 15.0240 122° Southeast 569 655 36,900  Level FlightAware ADS-B
Wed 04:57:05 AM 39.9370 15.1240 121° Southeast 568 654 36,900  Level FlightAware ADS-B
Wed 04:57:41 AM 39.8880 15.2290 121° Southeast 566 651 36,900  Level FlightAware ADS-B
Wed 04:58:13 AM 39.8440 15.3230 121° Southeast 562 647 36,900  Level FlightAware ADS-B
Wed 04:58:45 AM 39.8010 15.4120 122° Southeast 561 646 36,900  Level FlightAware ADS-B
Wed 04:59:21 AM 39.7520 15.5160 121° Southeast 558 642 36,900  Level FlightAware ADS-B
Wed 04:59:57 AM 39.7050 15.6140 122° Southeast 556 640 36,900  Level FlightAware ADS-B
Wed 05:00:29 AM 39.6600 15.7100 121° Southeast 555 639 36,900  Level FlightAware ADS-B
Wed 05:01:05 AM 39.6110 15.8110 122° Southeast 556 640 36,900  Level FlightAware ADS-B
Wed 05:01:41 AM 39.5620 15.9130 122° Southeast 556 640 36,900  Level FlightAware ADS-B
Wed 05:02:13 AM 39.5210 15.9980 122° Southeast 555 639 36,900  Level FlightAware ADS-B
Wed 05:02:49 AM 39.4690 16.1050 122° Southeast 557 641 36,900  Level FlightAware ADS-B
Wed 05:03:21 AM 39.4270 16.1910 122° Southeast 555 639 36,900  Level FlightAware ADS-B
Wed 05:04:00 AM 39.3720 16.3020 123° Southeast 552 635 36,900  Level FlightAware ADS-B
Wed 05:04:37 AM 39.3230 16.4030 122° Southeast 552 635 36,900  Level FlightAware ADS-B
Wed 05:05:10 AM 39.2850 16.5010 117° Southeast 545 627 36,900  Level FlightAware ADS-B
Wed 05:05:45 AM 39.2520 16.6040 112° Southeast 545 627 36,900  Level FlightAware ADS-B
Wed 05:06:18 AM 39.2200 16.7080 112° Southeast 544 626 36,900  Level FlightAware ADS-B
Wed 05:06:56 AM 39.1880 16.8210 110° East 542 624 36,900  Level FlightAware ADS-B
Wed 05:07:27 AM 39.1610 16.9120 111° Southeast 544 626 36,900  Level FlightAware ADS-B
Wed 05:08:04 AM 39.1270 17.0270 111° Southeast 545 627 36,900  Level FlightAware ADS-B
Wed 05:08:39 AM 39.0940 17.1370 111° Southeast 544 626 36,900  Level FlightAware ADS-B
Wed 05:09:15 AM 39.0610 17.2450 111° Southeast 543 625 36,900  Level FlightAware ADS-B
Wed 05:09:52 AM 39.0280 17.3540 111° Southeast 542 624 36,900  Level FlightAware ADS-B
Wed 05:10:23 AM 38.9990 17.4500 111° Southeast 540 621 36,900  Level FlightAware ADS-B
Wed 05:10:59 AM 38.9670 17.5560 111° Southeast 538 619 36,900  Level FlightAware ADS-B
Wed 05:11:35 AM 38.9350 17.6630 111° Southeast 537 618 36,900  Level FlightAware ADS-B
Wed 05:12:09 AM 38.9040 17.7640 111° Southeast 538 619 36,900  Level FlightAware ADS-B
Wed 05:12:45 AM 38.8720 17.8710 111° Southeast 539 620 36,900  Level FlightAware ADS-B
Wed 05:13:21 AM 38.8390 17.9790 111° Southeast 538 619 36,900  Level FlightAware ADS-B
Wed 05:13:57 AM 38.8060 18.0870 111° Southeast 537 618 36,900  Level FlightAware ADS-B
Wed 05:14:29 AM 38.7780 18.1800 111° Southeast 538 619 36,900  Level FlightAware ADS-B
Wed 05:15:05 AM 38.7440 18.2880 112° Southeast 539 620 36,900  Level FlightAware ADS-B
Wed 05:15:41 AM 38.7110 18.3960 111° Southeast 538 619 36,900  Level FlightAware ADS-B
Wed 05:16:17 AM 38.6780 18.5000 112° Southeast 537 618 36,900  Level FlightAware ADS-B
Wed 05:16:49 AM 38.6480 18.5960 112° Southeast 537 618 36,900  Level FlightAware ADS-B
Wed 05:17:25 AM 38.6150 18.7010 112° Southeast 537 618 36,900  Level FlightAware ADS-B
Wed 05:17:59 AM 38.5830 18.8030 112° Southeast 537 618 36,900  Level FlightAware ADS-B
Wed 05:18:40 AM 38.5540 18.8980 111° Southeast 539 620 36,900  Level FlightAware ADS-B
Wed 05:19:16 AM 38.5260 18.9890 111° Southeast 539 620 36,900  Level FlightAware ADS-B
Wed 05:19:52 AM 38.4990 19.0800 111° Southeast 539 620 36,900  Level FlightAware ADS-B
Wed 05:20:28 AM 38.4720 19.1710 111° Southeast 539 620 36,900  Level FlightAware ADS-B
Wed 05:21:05 AM 38.4430 19.2640 112° Southeast 539 620 36,900  Level FlightAware ADS-B
Wed 05:21:41 AM 38.4160 19.3550 111° Southeast 539 620 36,900  Level FlightAware ADS-B
Wed 05:22:17 AM 38.3890 19.4460 111° Southeast 539 620 36,900  Level FlightAware ADS-B
Wed 05:22:53 AM 38.3610 19.5370 111° Southeast 539 620 36,900  Level FlightAware ADS-B
Wed 05:23:29 AM 38.3340 19.6280 111° Southeast 539 620 36,900  Level FlightAware ADS-B
Wed 05:24:02 AM 38.2640 19.8730 110° East 537 618 36,900  Level FlightAware ADS-B
Wed 05:24:33 AM 38.2360 19.9640 111° Southeast 536 617 36,900  Level FlightAware ADS-B
Wed 05:25:09 AM 38.2020 20.0760 111° Southeast 535 616 36,900  Level FlightAware ADS-B
Wed 05:25:47 AM 38.1690 20.1830 111° Southeast 533 613 36,900  Level FlightAware ADS-B
Wed 05:26:21 AM 38.1400 20.2790 111° Southeast 531 611 36,900  Level FlightAware ADS-B
Wed 05:27:01 AM 38.1100 20.3780 111° Southeast 531 611 36,900  Level FlightAware ADS-B
Wed 05:27:35 AM 38.0730 20.4950 112° Southeast 527 606 36,900  Level FlightAware ADS-B
Wed 05:28:08 AM 38.0440 20.5890 111° Southeast 526 605 36,900  Level FlightAware ADS-B
Wed 05:28:42 AM 38.0200 20.6700 111° Southeast 526 605 36,900  Level FlightAware ADS-B
Wed 05:29:16 AM 37.9820 20.7880 112° Southeast 520 598 36,900  Level FlightAware ADS-B
Wed 05:30:06 AM 37.9440 20.9120 111° Southeast 520 598 36,900  Level FlightAware ADS-B
Wed 05:30:44 AM 37.9040 21.0350 112° Southeast 521 600 36,900  Level FlightAware ADS-B
Wed 05:31:15 AM 37.8770 21.1200 112° Southeast 522 601 36,900  Level FlightAware ADS-B
Wed 05:31:54 AM 37.8410 21.2300 112° Southeast 521 600 36,900  Level FlightAware ADS-B
Wed 05:32:28 AM 37.8100 21.3290 112° Southeast 519 597 36,900  Level FlightAware ADS-B
Wed 05:33:02 AM 37.7790 21.4260 112° Southeast 519 597 36,900  Level FlightAware ADS-B
Wed 05:33:35 AM 37.7500 21.5150 112° Southeast 517 595 36,900  Level FlightAware ADS-B
Wed 05:34:13 AM 37.7150 21.6230 112° Southeast 516 594 36,900  Level FlightAware ADS-B
Wed 05:34:47 AM 37.6840 21.7170 113° Southeast 519 597 36,900  Level FlightAware ADS-B
Wed 05:35:22 AM 37.6530 21.8150 112° Southeast 519 597 36,900  Level FlightAware ADS-B
Wed 05:35:57 AM 37.6210 21.9130 112° Southeast 518 596 36,900  Level FlightAware ADS-B
Wed 05:36:35 AM 37.5870 22.0160 113° Southeast 517 595 36,900  Level FlightAware ADS-B
Wed 05:37:07 AM 37.5560 22.1100 113° Southeast 518 596 36,900  Level FlightAware ADS-B
Wed 05:37:43 AM 37.5240 22.2080 112° Southeast 523 602 36,900 82 Level FlightAware ADS-B
Wed 05:38:20 AM 37.4900 22.3150 112° Southeast 526 605 37,000 87 Climbing FlightAware ADS-B
Wed 05:38:52 AM 37.4600 22.4060 113° Southeast 531 611 37,000  Level FlightAware ADS-B
Wed 05:39:29 AM 37.4270 22.5080 112° Southeast 535 616 37,000  Level FlightAware ADS-B
Wed 05:40:01 AM 37.3960 22.6040 112° Southeast 534 615 37,000 261 Level FlightAware ADS-B
Wed 05:40:38 AM 37.3630 22.7060 112° Southeast 515 593 37,300  Climbing FlightAware ADS-B
Wed 05:41:08 AM 37.3340 22.7900 113° Southeast 516 594 37,000 -254 Descending FlightAware ADS-B
Wed 05:41:49 AM 37.2950 22.9040 113° Southeast 504 580 37,000  Level FlightAware ADS-B
Wed 05:42:24 AM 37.2630 22.9970 113° Southeast 502 578 37,000  Level FlightAware ADS-B
Wed 05:42:57 AM 37.2340 23.0830 113° Southeast 503 579 37,000  Level FlightAware ADS-B
Wed 05:43:33 AM 37.2000 23.1810 114° Southeast 504 580 37,000  Level FlightAware ADS-B
Wed 05:44:10 AM 37.1660 23.2820 113° Southeast 503 579 37,000  Level FlightAware ADS-B
Wed 05:44:42 AM 37.1370 23.3680 113° Southeast 501 577 37,000  Level FlightAware ADS-B
Wed 05:45:15 AM 37.1070 23.4550 113° Southeast 498 573 37,000  Level FlightAware ADS-B
Wed 05:45:54 AM 37.0710 23.5590 113° Southeast 499 574 37,000  Level FlightAware ADS-B
Wed 05:46:27 AM 37.0400 23.6470 114° Southeast 501 577 37,000  Level FlightAware ADS-B
Wed 05:47:03 AM 37.0070 23.7410 114° Southeast 503 579 37,000  Level FlightAware ADS-B
Wed 05:47:38 AM 36.9740 23.8350 114° Southeast 505 581 37,000  Level FlightAware ADS-B
Wed 05:48:15 AM 36.9390 23.9330 114° Southeast 506 582 37,000  Level FlightAware ADS-B
Wed 05:48:45 AM 36.9100 24.0140 114° Southeast 507 583 37,000  Level FlightAware ADS-B
Wed 05:49:22 AM 36.8740 24.1130 114° Southeast 509 586 37,000  Level FlightAware ADS-B
Wed 05:49:59 AM 36.8380 24.2130 114° Southeast 512 589 37,000  Level FlightAware ADS-B
Wed 05:50:34 AM 36.8050 24.3050 114° Southeast 516 594 37,000  Level FlightAware ADS-B
Wed 05:51:07 AM 36.7720 24.3950 115° Southeast 518 596 37,000  Level FlightAware ADS-B
Wed 05:51:42 AM 36.7380 24.4900 114° Southeast 520 598 37,000  Level FlightAware ADS-B
Wed 05:52:20 AM 36.7000 24.5940 114° Southeast 519 597 37,000  Level FlightAware ADS-B
Wed 05:52:51 AM 36.6690 24.6800 114° Southeast 519 597 37,000  Level FlightAware ADS-B
Wed 05:53:29 AM 36.6310 24.7850 114° Southeast 519 597 37,000  Level FlightAware ADS-B
Wed 05:54:05 AM 36.5960 24.8810 114° Southeast 518 596 37,000  Level FlightAware ADS-B
Wed 05:54:37 AM 36.5640 24.9690 114° Southeast 516 594 37,000  Level FlightAware ADS-B
Wed 05:55:13 AM 36.5290 25.0660 114° Southeast 514 592 37,000  Level FlightAware ADS-B
Wed 05:55:47 AM 36.4960 25.1570 114° Southeast 513 590 37,000  Level FlightAware ADS-B
Wed 05:56:23 AM 36.4600 25.2540 115° Southeast 510 587 37,000  Level FlightAware ADS-B
Wed 05:56:55 AM 36.4290 25.3390 114° Southeast 508 585 37,000  Level FlightAware ADS-B
Wed 05:57:33 AM 36.3920 25.4400 114° Southeast 506 582 37,000  Level FlightAware ADS-B
Wed 05:58:09 AM 36.3570 25.5340 115° Southeast 506 582 37,000  Level FlightAware ADS-B
Wed 05:58:45 AM 36.3220 25.6280 115° Southeast 508 585 37,000  Level FlightAware ADS-B
Wed 05:59:16 AM 36.2910 25.7110 115° Southeast 507 583 37,000  Level FlightAware ADS-B
Wed 05:59:52 AM 36.2560 25.8060 115° Southeast 508 585 37,000  Level FlightAware ADS-B
Wed 06:00:26 AM 36.2220 25.8960 115° Southeast 509 586 37,000  Level FlightAware ADS-B
Wed 06:01:02 AM 36.1850 25.9920 116° Southeast 509 586 37,000  Level FlightAware ADS-B
Wed 06:01:38 AM 36.1500 26.0860 115° Southeast 509 586 37,000  Level FlightAware ADS-B
Wed 06:02:14 AM 36.1140 26.1800 115° Southeast 509 586 37,000  Level FlightAware ADS-B
Wed 06:02:48 AM 36.0800 26.2700 115° Southeast 509 586 37,000  Level FlightAware ADS-B
Wed 06:03:22 AM 36.0450 26.3590 116° Southeast 509 586 37,000  Level FlightAware ADS-B
Wed 06:03:56 AM 36.0090 26.4510 116° Southeast 510 587 37,000  Level FlightAware ADS-B
Wed 06:04:32 AM 35.9740 26.5430 115° Southeast 511 588 37,000  Level FlightAware ADS-B
Wed 06:05:09 AM 35.9360 26.6390 116° Southeast 512 589 37,000  Level FlightAware ADS-B
Wed 06:05:44 AM 35.9000 26.7310 116° Southeast 513 590 37,000  Level FlightAware ADS-B
Wed 06:06:26 AM 35.8640 26.8270 115° Southeast 513 590 37,000  Level FlightAware ADS-B
Wed 06:07:03 AM 35.8330 26.9100 115° Southeast 513 590 37,000  Level FlightAware ADS-B
Wed 06:07:39 AM 35.8020 26.9910 115° Southeast 513 590 37,000  Level FlightAware ADS-B
Wed 06:08:15 AM 35.7710 27.0730 115° Southeast 513 590 37,000  Level FlightAware ADS-B
Wed 06:08:51 AM 35.7120 27.2180 117° Southeast 516 594 37,000  Level FlightAware ADS-B
Wed 06:09:27 AM 35.6810 27.2990 115° Southeast 516 594 37,000  Level FlightAware ADS-B
Wed 06:09:59 AM 35.6410 27.4000 116° Southeast 517 595 37,000  Level FlightAware ADS-B
Wed 06:10:35 AM 35.6000 27.5050 116° Southeast 519 597 37,000  Level FlightAware ADS-B
Wed 06:11:27 AM 35.5550 27.6230 115° Southeast 519 597 37,000  Level FlightAware ADS-B
Wed 06:12:02 AM 35.5100 27.7350 116° Southeast 521 600 37,000  Level FlightAware ADS-B
Wed 06:12:43 AM 35.4740 27.8290 115° Southeast 521 600 37,000  Level FlightAware ADS-B
Wed 06:13:15 AM 35.4360 27.9200 117° Southeast 521 600 37,000  Level FlightAware ADS-B
Wed 06:14:11 AM 35.3770 28.0650 116° Southeast 522 601 37,000  Level FlightAware ADS-B
Wed 06:14:47 AM 35.3370 28.1620 117° Southeast 521 600 37,000  Level FlightAware ADS-B
Wed 06:15:24 AM 35.3040 28.2450 116° Southeast 521 600 37,000  Level FlightAware ADS-B
Wed 06:16:02 AM 35.2520 28.3700 117° Southeast 514 592 37,000  Level FlightAware ADS-B
Wed 06:16:40 AM 35.2190 28.4540 116° Southeast 514 592 37,000  Level FlightAware ADS-B
Wed 06:17:15 AM 35.1760 28.5560 117° Southeast 753 867 37,000  Level FlightAware ADS-B
Wed 06:17:52 AM 35.1420 28.6410 116° Southeast 510 587 37,000  Level FlightAware ADS-B
Wed 06:18:40 AM 35.0960 28.7540 116° Southeast 510 587 37,000  Level FlightAware ADS-B
Wed 06:19:13 AM 35.0510 28.8610 117° Southeast 511 588 37,000  Level FlightAware ADS-B
Wed 06:19:59 AM 35.0020 28.9800 117° Southeast 511 588 37,000  Level FlightAware ADS-B
Wed 06:20:36 AM 34.9700 29.0620 115° Southeast 511 588 37,000  Level FlightAware ADS-B
Wed 06:21:16 AM 34.9250 29.1710 117° Southeast 512 589 37,000  Level FlightAware ADS-B
Wed 06:22:10 AM 34.8700 29.3040 117° Southeast 512 589 37,000  Level FlightAware ADS-B
Wed 06:22:51 AM 34.8200 29.4240 117° Southeast 510 587 37,000  Level FlightAware ADS-B
Wed 06:23:22 AM 34.7870 29.5030 117° Southeast 510 587 37,000  Level FlightAware ADS-B
Wed 06:23:56 AM 34.7510 29.5890 117° Southeast 510 587 37,000  Level FlightAware ADS-B
Wed 06:24:37 AM 34.7060 29.6960 117° Southeast 511 588 37,000  Level FlightAware ADS-B
Wed 06:25:13 AM 34.6670 29.7900 117° Southeast 511 588 37,000  Level FlightAware ADS-B
Wed 06:25:43 AM 34.6360 29.8620 118° Southeast 511 588 37,000  Level FlightAware ADS-B
Wed 06:26:22 AM 34.6020 29.9480 116° Southeast 511 588 37,000 -91 Level FlightAware ADS-B
Wed 06:26:49 AM 34.5630 30.0320 119° Southeast 856 985 36,900 -911 Descending FlightAware ADS-B
Wed 06:28:14 AM 34.4620 30.2430 120° Southeast 508 585 35,300 -958 Descending FlightAware ADS-B
Wed 06:28:48 AM 34.4220 30.3270 120° Southeast 504 580 35,000 -257 Descending FlightAware ADS-B
Wed 06:29:24 AM 34.3790 30.4150 121° Southeast 501 577 35,000  Level FlightAware ADS-B
Wed 06:30:05 AM 34.3310 30.5150 120° Southeast 502 578 35,000  Level FlightAware ADS-B
Wed 06:30:40 AM 34.2910 30.6000 120° Southeast 503 579 35,000  Level FlightAware ADS-B
Wed 06:31:15 AM 34.2470 30.6910 120° Southeast 508 585 35,000  Level FlightAware ADS-B
Wed 06:31:51 AM 34.2060 30.7760 120° Southeast 508 585 35,000  Level FlightAware ADS-B
Wed 06:32:25 AM 34.1640 30.8610 121° Southeast 509 586 35,000  Level FlightAware ADS-B
Wed 06:33:01 AM 34.1230 30.9460 120° Southeast 510 587 35,000  Level FlightAware ADS-B
Wed 06:33:39 AM 34.0840 31.0260 120° Southeast 510 587 35,000  Level FlightAware ADS-B
Wed 06:34:11 AM 34.0390 31.1180 121° Southeast 512 589 35,000  Level FlightAware ADS-B
Wed 06:34:45 AM 33.9950 31.2060 121° Southeast 512 589 35,000  Level FlightAware ADS-B
Wed 06:35:21 AM 33.9540 31.2910 120° Southeast 513 590 35,000  Level FlightAware ADS-B
Wed 06:36:00 AM 33.9070 31.3880 120° Southeast 514 592 35,000  Level FlightAware ADS-B
Wed 06:36:36 AM 33.8630 31.4770 121° Southeast 515 593 35,000  Level FlightAware ADS-B
Wed 06:37:11 AM 33.8210 31.5630 120° Southeast 515 593 35,000  Level FlightAware ADS-B
Wed 06:37:46 AM 33.7770 31.6520 121° Southeast 511 588 35,000  Level FlightAware ADS-B
Wed 06:38:21 AM 33.7370 31.7330 121° Southeast 512 589 35,000  Level FlightAware ADS-B
Wed 06:38:56 AM 33.6920 31.8250 120° Southeast 516 594 35,000  Level FlightAware ADS-B
Wed 06:39:31 AM 33.6490 31.9130 120° Southeast 517 595 35,000  Level FlightAware ADS-B
Wed 06:40:09 AM 33.6060 32.0020 120° Southeast 518 596 35,000  Level FlightAware ADS-B
Wed 06:40:44 AM 33.5640 32.0870 121° Southeast 517 595 35,000  Level FlightAware ADS-B
Wed 06:41:18 AM 33.5220 32.1730 120° Southeast 513 590 35,000  Level FlightAware ADS-B
Wed 06:41:52 AM 33.4790 32.2590 121° Southeast 513 590 35,000  Level FlightAware ADS-B
Wed 06:42:28 AM 33.4390 32.3390 121° Southeast 513 590 35,000  Level FlightAware ADS-B
Wed 06:43:02 AM 33.3930 32.4300 121° Southeast 512 589 35,000  Level FlightAware ADS-B
Wed 06:43:43 AM 33.3430 32.5290 121° Southeast 512 589 35,000  Level FlightAware ADS-B
Wed 06:44:22 AM 33.2930 32.6280 121° Southeast 511 588 35,000  Level FlightAware ADS-B
Wed 06:44:56 AM 33.2530 32.7070 121° Southeast 514 592 35,000  Level FlightAware ADS-B
Wed 06:45:30 AM 33.2170 32.7790 121° Southeast 513 590 35,000 -971 Level FlightAware ADS-B
Wed 06:46:04 AM 33.1700 32.8710 121° Southeast 497 572 33,900 -1,899 Descending FlightAware ADS-B
Wed 06:46:49 AM 33.1190 32.9700 122° Southeast 487 560 32,500 -2,047 Descending FlightAware ADS-B
Wed 06:47:29 AM 33.0730 33.0600 121° Southeast 475 547 31,000 -2,286 Descending FlightAware ADS-B
Wed 06:48:13 AM 33.0260 33.1520 121° Southeast 473 544 29,300 -2,550 Descending FlightAware ADS-B
Wed 06:48:49 AM 32.9780 33.2440 122° Southeast 467 537 27,600 -2,560 Descending FlightAware ADS-B
Wed 06:49:28 AM 32.9350 33.3270 122° Southeast 458 527 26,100 -2,320 Descending FlightAware ADS-B
Wed 06:50:04 AM 32.8950 33.4050 121° Southeast 444 511 24,700 -2,273 Descending FlightAware ADS-B
Wed 06:50:34 AM 32.8650 33.4640 121° Southeast 425 489 23,600 -2,000 Descending FlightAware ADS-B
Wed 06:51:13 AM 32.8270 33.5370 122° Southeast 399 459 22,400 -1,890 Descending FlightAware ADS-B
Wed 06:51:47 AM 32.7920 33.6040 122° Southeast 382 440 21,300 -2,026 Descending FlightAware ADS-B
Wed 06:52:30 AM 32.7530 33.6800 121° Southeast 374 430 19,800 -1,975 Descending FlightAware ADS-B
Wed 06:53:06 AM 32.7220 33.7420 121° Southeast 364 419 18,700 -1,800 Descending FlightAware ADS-B
Wed 06:53:40 AM 32.6920 33.7990 122° Southeast 358 412 17,700 -1,800 Descending FlightAware ADS-B
Wed 06:54:16 AM 32.6610 33.8590 122° Southeast 353 406 16,600 -1,750 Descending FlightAware ADS-B
Wed 06:54:52 AM 32.6300 33.9180 122° Southeast 348 400 15,600 -1,727 Descending FlightAware ADS-B
Wed 06:55:22 AM 32.6050 33.9680 121° Southeast 344 396 14,700 -1,818 Descending FlightAware ADS-B
Wed 06:55:58 AM 32.5740 34.0260 122° Southeast 339 390 13,600 -1,703 Descending FlightAware ADS-B
Wed 06:56:36 AM 32.5430 34.0850 122° Southeast 334 384 12,600 -1,667 Descending FlightAware ADS-B
Wed 06:57:10 AM 32.5140 34.1370 123° Southeast 329 379 11,600 -1,714 Descending FlightAware ADS-B
Wed 06:57:46 AM 32.4750 34.1810 136° Southeast 325 374 10,600 -1,216 Descending FlightAware ADS-B
Wed 06:58:24 AM 32.4350 34.2260 136° Southeast 303 349 10,100 -529 Descending FlightAware ADS-B
Wed 06:58:54 AM 32.4090 34.2570 135° Southeast 281 323 10,000 -600 Descending FlightAware ADS-B
Wed 06:59:14 AM 32.3920 34.2780 134° Southeast 277 319 9,600 -1,050 Descending FlightAware ADS-B
Wed 06:59:34 AM 32.3760 34.2990 132° Southeast 272 313 9,300 -1,333 Descending FlightAware ADS-B
Wed 06:59:59 AM 32.3510 34.3290 135° Southeast 269 310 8,600 -1,543 Descending FlightAware ADS-B
Wed 07:00:09 AM 32.3410 34.3410 135° Southeast 268 308 8,400 -1,029 Descending FlightAware ADS-B
Wed 07:00:34 AM 32.3200 34.3660 135° Southeast 260 299 8,000 -878 Descending FlightAware ADS-B
Wed 07:00:50 AM 32.3090 34.3790 135° Southeast 257 296 7,800 -857 Descending FlightAware ADS-B
Wed 07:01:09 AM 32.2940 34.3960 136° Southeast 255 293 7,500 -1,059 Descending FlightAware ADS-B
Wed 07:01:24 AM 32.2780 34.4140 136° Southeast 263 303 7,200 -1,200 Descending FlightAware ADS-B
Wed 07:01:49 AM 32.2600 34.4400 129° Southeast 268 308 6,700 -1,200 Descending FlightAware ADS-B
Wed 07:02:04 AM 32.2500 34.4600 121° Southeast 268 308 6,400 -577 Descending FlightAware ADS-B
Wed 07:02:41 AM 32.2300 34.4990 121° Southeast 268 308 6,200 -1,333 Descending FlightAware ADS-B
Wed 07:02:49 AM 32.2210 34.5150 124° Southeast 266 306 5,400 -1,333 Descending FlightAware ADS-B
Wed 07:03:17 AM 32.2050 34.5450 122° Southeast 266 306 5,400 -436 Level FlightAware ADS-B
Wed 07:03:44 AM 32.1840 34.5840 122° Southeast 254 292 5,000 -511 Descending FlightAware ADS-B
Wed 07:04:04 AM 32.1730 34.6030 124° Southeast 261 300 5,000  Level FlightAware ADS-B
Wed 07:04:24 AM 32.1600 34.6270 123° Southeast 260 299 5,000  Level FlightAware ADS-B
Wed 07:04:57 AM 32.1400 34.6610 125° Southeast 260 299 5,000  Level FlightAware ADS-B
Wed 07:06:04 AM 32.1560 34.6330 304° West 221 254 5,000  Level FlightAware ADS-B
Wed 07:06:31 AM 32.1430 34.6560 124° Southeast 221 254 5,000 -200 Level FlightAware ADS-B
Wed 07:06:34 AM 32.1560 34.6330 304° West 213 245 4,900 -558 Descending FlightAware ADS-B
Wed 07:07:14 AM 32.0510 34.7890 128° Southeast 213 245 4,600 -369 Descending FlightAware ADS-B
Wed 07:07:39 AM 32.0340 34.8090 135° Southeast 207 238 4,500 -667 Descending FlightAware ADS-B
Wed 07:07:59 AM 32.0220 34.8230 135° Southeast 214 246 4,100 -1,371 Descending FlightAware ADS-B
Wed 07:08:14 AM 32.0120 34.8350 135° Southeast 218 251 3,700 -600 Descending FlightAware ADS-B
Wed 07:08:39 AM 31.9970 34.8530 134° Southeast 218 251 3,700 -1,500 Level FlightAware ADS-B
Wed 07:08:54 AM 32.0080 34.8810 65° Northeast 188 216 2,700 -1,867 Descending FlightAware ADS-B
Wed 07:09:24 AM 32.0140 34.9100 76° East 180 207 2,300 -750 Descending FlightAware ADS-B
Wed 07:09:50 AM 32.0210 34.9280 65° Northeast 176 203 2,000 -800 Descending FlightAware ADS-B
Wed 07:10:09 AM 32.0330 34.9350 26° Northeast 156 180 1,700 -923 Descending FlightAware ADS-B
Wed 07:10:29 AM 32.0500 34.9310 349° North 157 181 1,400 -1,000 Descending FlightAware ADS-B
Wed 07:10:39 AM 32.0550 34.9270 326° Northwest 158 182 1,200 -900 Descending FlightAware ADS-B
Wed 07:10:49 AM 32.0570 34.9190 286° West 163 188 1,100 -800 Descending FlightAware ADS-B
Wed 07:10:54 AM 32.0580 34.9140 283° West 166 191 1,000 -1,000 Descending FlightAware ADS-B
Wed 07:11:07 AM 32.0560 34.9050 255° West 165 190 800 -923 Descending FlightAware ADS-B

Login

Don't have an account? Register now (free) for customized features, flight alerts, and more!